createdAt,value
2022-07-26T00:00:41.170Z,3.88
2022-07-26T00:03:07.546Z,3.84
2022-07-26T00:05:33.903Z,4.12
2022-07-26T00:08:00.257Z,3.96
2022-07-26T00:10:26.608Z,4.00
2022-07-26T00:12:52.984Z,4.03
2022-07-26T00:15:19.343Z,3.95
2022-07-26T00:17:45.700Z,3.69
2022-07-26T00:20:12.070Z,3.99
2022-07-26T00:22:38.440Z,3.87
2022-07-26T00:25:04.829Z,3.81
2022-07-26T00:27:31.910Z,3.66
2022-07-26T00:29:58.268Z,3.53
2022-07-26T00:32:24.618Z,3.57
2022-07-26T00:34:50.990Z,3.56
2022-07-26T00:37:20.582Z,3.18
2022-07-26T00:39:47.213Z,3.05
2022-07-26T00:42:13.569Z,3.26
2022-07-26T00:44:39.929Z,3.07
2022-07-26T00:47:06.296Z,2.94
2022-07-26T00:49:32.649Z,2.84
2022-07-26T00:51:59.020Z,2.63
2022-07-26T00:54:25.393Z,2.85
2022-07-26T00:56:55.095Z,2.65
2022-07-26T00:59:21.690Z,2.86
2022-07-26T01:01:48.213Z,2.74
2022-07-26T01:04:14.701Z,2.62
2022-07-26T01:06:41.060Z,2.52
2022-07-26T01:09:07.419Z,2.50
2022-07-26T01:11:33.781Z,2.48
2022-07-26T01:14:00.140Z,2.58
2022-07-26T01:16:26.557Z,2.62
2022-07-26T01:18:52.955Z,2.46
2022-07-26T01:21:19.309Z,2.68
2022-07-26T01:23:45.673Z,2.56
2022-07-26T01:26:12.032Z,2.50
2022-07-26T01:28:39.019Z,2.54
2022-07-26T01:31:05.414Z,2.51
2022-07-26T01:33:31.848Z,2.40
2022-07-26T01:35:58.215Z,2.51
2022-07-26T01:38:24.585Z,2.48
2022-07-26T01:40:50.965Z,2.28
2022-07-26T01:43:17.331Z,2.16
2022-07-26T01:45:44.166Z,2.18
2022-07-26T01:48:10.543Z,2.19
2022-07-26T01:50:36.901Z,2.42
2022-07-26T01:53:03.260Z,2.33
2022-07-26T01:55:32.785Z,2.20
2022-07-26T01:58:00.355Z,2.21
2022-07-26T02:00:26.713Z,2.28
2022-07-26T02:02:53.179Z,2.27
2022-07-26T02:05:19.616Z,2.18
2022-07-26T02:07:45.987Z,2.14
2022-07-26T02:10:12.685Z,2.37
2022-07-26T02:12:40.276Z,2.16
2022-07-26T02:15:06.647Z,2.14
2022-07-26T02:17:32.999Z,2.29
2022-07-26T02:19:59.364Z,1.96
2022-07-26T02:22:25.725Z,2.10
2022-07-26T02:24:53.242Z,2.03
2022-07-26T02:27:19.628Z,2.09
2022-07-26T02:29:45.985Z,2.20
2022-07-26T02:32:12.341Z,2.20
2022-07-26T02:34:38.710Z,2.03
2022-07-26T02:37:05.072Z,2.16
2022-07-26T02:39:31.423Z,1.95
2022-07-26T02:41:57.781Z,1.59
2022-07-26T02:44:24.141Z,1.50
2022-07-26T02:46:50.533Z,1.33
2022-07-26T02:49:16.986Z,1.41
2022-07-26T02:51:43.378Z,1.30
2022-07-26T02:54:09.926Z,1.39
2022-07-26T02:56:36.662Z,1.00
2022-07-26T02:59:03.032Z,1.24
2022-07-26T03:01:29.527Z,1.19
2022-07-26T03:03:55.927Z,1.20
2022-07-26T03:06:22.284Z,1.35
2022-07-26T03:08:48.634Z,1.24
2022-07-26T03:11:14.996Z,1.20
2022-07-26T03:13:41.345Z,1.17
2022-07-26T03:16:07.740Z,1.12
2022-07-26T03:18:34.166Z,1.02
2022-07-26T03:21:00.527Z,1.23
2022-07-26T03:23:26.887Z,1.17
2022-07-26T03:25:53.229Z,1.23
2022-07-26T03:28:19.874Z,1.22
2022-07-26T03:30:46.351Z,1.04
2022-07-26T03:33:12.753Z,1.18
2022-07-26T03:35:39.113Z,1.18
2022-07-26T03:38:06.722Z,1.23
2022-07-26T03:40:33.102Z,1.27
2022-07-26T03:42:59.467Z,1.27
2022-07-26T03:45:25.825Z,1.18
2022-07-26T03:47:52.182Z,1.23
2022-07-26T03:50:18.555Z,1.26
2022-07-26T03:52:45.720Z,1.14
2022-07-26T03:55:12.081Z,1.37
2022-07-26T03:57:38.434Z,1.27
2022-07-26T04:00:04.775Z,1.32
2022-07-26T04:02:31.187Z,1.49
2022-07-26T04:04:57.579Z,1.33
2022-07-26T04:07:23.934Z,1.36
2022-07-26T04:09:53.450Z,1.54
2022-07-26T04:12:19.823Z,1.52
2022-07-26T04:14:46.191Z,1.44
2022-07-26T04:17:12.650Z,1.41
2022-07-26T04:19:40.024Z,1.47
2022-07-26T04:22:09.680Z,1.52
2022-07-26T04:24:36.032Z,1.55
2022-07-26T04:27:02.392Z,1.64
2022-07-26T04:29:30.930Z,1.54
2022-07-26T04:31:57.568Z,1.63
2022-07-26T04:34:23.976Z,1.58
2022-07-26T04:36:59.077Z,1.55
2022-07-26T04:39:25.453Z,1.62
2022-07-26T04:41:51.834Z,1.59
2022-07-26T04:44:18.211Z,1.88
2022-07-26T04:46:50.852Z,1.76
2022-07-26T04:49:20.110Z,1.67
2022-07-26T04:51:46.481Z,1.92
2022-07-26T04:54:12.860Z,1.54
2022-07-26T04:56:39.215Z,1.81
2022-07-26T04:59:05.586Z,1.77
2022-07-26T05:01:31.978Z,1.85
2022-07-26T05:04:00.889Z,1.87
2022-07-26T05:06:27.253Z,1.80
2022-07-26T05:08:53.610Z,1.85
2022-07-26T05:11:19.966Z,1.69
2022-07-26T05:13:46.333Z,1.87
2022-07-26T05:16:12.740Z,1.92
2022-07-26T05:18:49.087Z,2.01
2022-07-26T05:21:15.701Z,2.04
2022-07-26T05:23:42.063Z,1.85
2022-07-26T05:26:08.413Z,1.83
2022-07-26T05:28:34.768Z,1.80
2022-07-26T05:31:01.187Z,1.95
2022-07-26T05:33:27.624Z,1.92
2022-07-26T05:35:53.980Z,2.04
2022-07-26T05:38:20.347Z,2.19
2022-07-26T05:40:50.440Z,2.09
2022-07-26T05:43:17.331Z,2.17
2022-07-26T05:45:43.727Z,2.08
2022-07-26T05:48:10.139Z,2.17
2022-07-26T05:50:36.514Z,2.34
2022-07-26T05:53:02.886Z,2.34
2022-07-26T05:55:29.249Z,2.55
2022-07-26T05:57:55.606Z,2.36
2022-07-26T06:00:21.963Z,2.39
2022-07-26T06:02:48.409Z,2.43
2022-07-26T06:05:14.928Z,2.40
2022-07-26T06:07:41.317Z,2.56
2022-07-26T06:10:07.672Z,2.39
2022-07-26T06:12:34.037Z,2.44
2022-07-26T06:15:00.404Z,2.08
2022-07-26T06:17:26.867Z,2.33
2022-07-26T06:19:53.302Z,2.18
2022-07-26T06:22:19.682Z,2.25
2022-07-26T06:24:46.046Z,2.06
2022-07-26T06:27:12.432Z,2.35
2022-07-26T06:29:38.891Z,2.18
2022-07-26T06:32:05.351Z,2.23
2022-07-26T06:34:31.789Z,2.25
2022-07-26T06:36:58.188Z,2.31
2022-07-26T06:39:24.936Z,2.16
2022-07-26T06:41:51.301Z,2.29
2022-07-26T06:44:17.673Z,2.46
2022-07-26T06:46:44.047Z,2.54
2022-07-26T06:49:10.483Z,2.42
2022-07-26T06:51:36.939Z,2.39
2022-07-26T06:54:03.304Z,2.19
2022-07-26T06:56:29.675Z,2.36
2022-07-26T06:58:56.040Z,2.35
2022-07-26T07:01:51.176Z,2.38
2022-07-26T07:04:09.129Z,2.33
2022-07-26T07:06:35.722Z,2.48
2022-07-26T07:09:02.088Z,2.41
2022-07-26T07:11:28.467Z,2.43
2022-07-26T07:13:55.167Z,2.34
2022-07-26T07:16:21.603Z,2.43
2022-07-26T07:18:48.003Z,2.27
2022-07-26T07:21:14.390Z,2.20
2022-07-26T07:23:40.808Z,2.44
2022-07-26T07:26:07.179Z,2.39
2022-07-26T07:28:33.558Z,2.30
2022-07-26T07:30:59.939Z,2.46
2022-07-26T07:33:26.297Z,2.45
2022-07-26T07:36:02.981Z,2.46
2022-07-26T07:38:29.367Z,2.44
2022-07-26T07:40:56.607Z,2.42
2022-07-26T07:43:22.975Z,2.38
2022-07-26T07:45:49.353Z,2.07
2022-07-26T07:48:15.729Z,2.39
2022-07-26T07:50:42.091Z,2.22
2022-07-26T07:53:08.453Z,2.20
2022-07-26T07:55:46.074Z,2.16
2022-07-26T07:58:13.145Z,2.32
2022-07-26T08:00:40.732Z,2.25
2022-07-26T08:03:07.197Z,2.27
2022-07-26T08:05:34.533Z,2.40
2022-07-26T08:08:08.171Z,2.22
2022-07-26T08:10:34.805Z,2.38
2022-07-26T08:13:05.120Z,2.51
2022-07-26T08:15:33.081Z,2.43
2022-07-26T08:17:59.449Z,2.14
2022-07-26T08:20:26.531Z,2.28
2022-07-26T08:22:53.013Z,2.32
2022-07-26T08:25:19.428Z,2.28
2022-07-26T08:28:02.507Z,1.98
2022-07-26T08:30:29.734Z,2.02
2022-07-26T08:32:56.106Z,2.12
2022-07-26T08:35:22.461Z,2.21
2022-07-26T08:37:48.841Z,2.11
2022-07-26T08:40:15.217Z,2.02
2022-07-26T08:42:41.591Z,2.07
2022-07-26T08:45:07.960Z,1.92
2022-07-26T08:47:37.949Z,2.21
2022-07-26T08:50:06.506Z,2.09
2022-07-26T08:52:32.878Z,2.16
2022-07-26T08:54:59.243Z,2.08
2022-07-26T08:57:25.616Z,2.22
2022-07-26T08:59:51.974Z,2.18
2022-07-26T09:02:18.345Z,2.13
2022-07-26T09:04:45.139Z,2.03
2022-07-26T09:07:11.608Z,2.13
2022-07-26T09:09:38.060Z,2.26
2022-07-26T09:12:04.439Z,2.33
2022-07-26T09:14:30.801Z,2.50
2022-07-26T09:16:57.185Z,2.20
2022-07-26T09:19:23.614Z,2.21
2022-07-26T09:21:49.998Z,2.10
2022-07-26T09:24:16.375Z,2.22
2022-07-26T09:26:42.743Z,2.37
2022-07-26T09:29:09.588Z,2.26
2022-07-26T09:31:36.323Z,2.48
2022-07-26T09:34:02.852Z,2.34
2022-07-26T09:36:29.272Z,2.47
2022-07-26T09:38:55.638Z,2.40
2022-07-26T09:41:22.027Z,2.28
2022-07-26T09:43:53.461Z,2.36
2022-07-26T09:46:20.056Z,2.38
2022-07-26T09:49:09.382Z,2.30
2022-07-26T09:51:33.230Z,2.53
2022-07-26T09:54:00.610Z,2.41
2022-07-26T09:56:26.985Z,2.55
2022-07-26T09:58:53.366Z,2.51
2022-07-26T10:01:21.141Z,2.57
2022-07-26T10:03:47.636Z,2.56
2022-07-26T10:06:14.006Z,2.84
2022-07-26T10:08:40.388Z,2.77
2022-07-26T10:11:06.763Z,2.66
2022-07-26T10:13:33.152Z,2.79
2022-07-26T10:15:59.568Z,2.90
2022-07-26T10:18:25.990Z,2.75
2022-07-26T10:20:52.583Z,3.48
2022-07-26T10:23:18.933Z,3.69
2022-07-26T10:25:45.291Z,3.65
2022-07-26T10:28:11.957Z,4.13
2022-07-26T10:30:38.601Z,4.92
2022-07-26T10:33:05.142Z,5.54
2022-07-26T10:35:31.570Z,5.26
2022-07-26T10:37:57.925Z,5.25
2022-07-26T10:40:24.290Z,4.92
2022-07-26T10:42:50.670Z,4.98
2022-07-26T10:45:17.035Z,4.70
2022-07-26T10:47:43.409Z,4.17
2022-07-26T10:50:09.793Z,4.18
2022-07-26T10:52:36.148Z,3.95
2022-07-26T10:55:02.507Z,3.70
2022-07-26T10:57:28.874Z,3.50
2022-07-26T10:59:56.460Z,3.42
2022-07-26T11:02:23.164Z,3.41
2022-07-26T11:04:49.548Z,3.45
2022-07-26T11:07:15.908Z,3.13
2022-07-26T11:09:42.272Z,3.28
2022-07-26T11:12:08.632Z,3.09
2022-07-26T11:14:35.013Z,2.89
2022-07-26T11:17:02.728Z,2.97
2022-07-26T11:19:29.113Z,2.98
2022-07-26T11:21:55.481Z,3.26
2022-07-26T11:24:21.866Z,3.14
2022-07-26T11:26:48.244Z,3.22
2022-07-26T11:29:17.062Z,2.96
2022-07-26T11:31:51.357Z,3.22
2022-07-26T11:34:26.137Z,3.05
2022-07-26T11:36:52.515Z,3.10
2022-07-26T11:39:18.930Z,2.98
2022-07-26T11:41:45.309Z,3.09
2022-07-26T11:44:11.931Z,2.81
2022-07-26T11:46:38.570Z,2.83
2022-07-26T11:49:05.121Z,2.71
2022-07-26T11:51:31.549Z,2.90
2022-07-26T11:53:57.915Z,2.95
2022-07-26T11:56:24.326Z,2.92
2022-07-26T11:58:50.704Z,2.86
2022-07-26T12:01:17.066Z,2.67
2022-07-26T12:03:43.454Z,2.76
2022-07-26T12:06:09.850Z,2.98
2022-07-26T12:08:36.217Z,2.64
2022-07-26T12:11:02.589Z,2.64
2022-07-26T12:13:28.949Z,2.79
2022-07-26T12:16:06.439Z,2.86
2022-07-26T12:18:32.893Z,2.94
2022-07-26T12:21:04.136Z,2.66
2022-07-26T12:23:31.768Z,2.75
2022-07-26T12:25:58.143Z,2.77
2022-07-26T12:28:24.500Z,2.82
2022-07-26T12:30:50.898Z,2.64
2022-07-26T12:33:17.315Z,2.74
2022-07-26T12:35:43.685Z,2.64
2022-07-26T12:38:10.045Z,2.72
2022-07-26T12:40:36.408Z,2.83
2022-07-26T12:43:03.075Z,2.80
2022-07-26T12:45:29.518Z,2.83
2022-07-26T12:47:55.888Z,2.57
2022-07-26T12:50:22.790Z,2.69
2022-07-26T12:52:49.182Z,2.60
2022-07-26T12:55:15.550Z,2.82
2022-07-26T12:57:46.109Z,2.73
2022-07-26T13:00:14.105Z,2.82
2022-07-26T13:02:40.486Z,3.00
2022-07-26T13:05:06.927Z,2.78
2022-07-26T13:07:33.440Z,2.81
2022-07-26T13:10:30.473Z,2.86
2022-07-26T13:12:46.165Z,2.97
2022-07-26T13:15:12.542Z,2.89
2022-07-26T13:17:38.905Z,2.99
2022-07-26T13:20:05.280Z,2.83
2022-07-26T13:22:31.640Z,2.90
2022-07-26T13:24:58.757Z,2.96
2022-07-26T13:27:36.025Z,3.32
2022-07-26T13:30:03.811Z,3.00
2022-07-26T13:32:30.200Z,2.92
2022-07-26T13:34:56.563Z,3.19
2022-07-26T13:37:22.958Z,3.04
2022-07-26T13:39:49.355Z,2.90
2022-07-26T13:42:15.742Z,2.93
2022-07-26T13:44:42.100Z,2.79
2022-07-26T13:47:08.460Z,2.92
2022-07-26T13:49:34.990Z,2.88
2022-07-26T13:52:01.426Z,3.02
2022-07-26T13:54:27.806Z,3.09
2022-07-26T13:56:54.241Z,2.93
2022-07-26T13:59:20.692Z,3.18
2022-07-26T14:01:47.136Z,2.87
2022-07-26T14:04:14.006Z,3.07
2022-07-26T14:06:40.797Z,3.23
2022-07-26T14:09:10.630Z,2.89
2022-07-26T14:11:37.427Z,2.96
2022-07-26T14:14:03.796Z,2.91
2022-07-26T14:16:30.238Z,3.08
2022-07-26T14:18:56.686Z,3.18
2022-07-26T14:21:23.060Z,2.96
2022-07-26T14:23:49.421Z,3.08
2022-07-26T14:26:15.788Z,3.04
2022-07-26T14:28:42.174Z,3.03
2022-07-26T14:31:08.532Z,2.89
2022-07-26T14:33:34.895Z,3.15
2022-07-26T14:36:01.286Z,2.98
2022-07-26T14:38:29.923Z,3.19
2022-07-26T14:40:56.600Z,2.96
2022-07-26T14:43:22.960Z,3.18
2022-07-26T14:45:49.409Z,3.10
2022-07-26T14:48:31.549Z,3.09
2022-07-26T14:51:10.123Z,2.92
2022-07-26T14:53:36.676Z,3.17
2022-07-26T14:56:03.045Z,2.89
2022-07-26T14:58:29.426Z,2.98
2022-07-26T15:00:55.847Z,3.08
2022-07-26T15:03:22.252Z,3.22
2022-07-26T15:05:48.659Z,2.93
2022-07-26T15:08:15.032Z,3.21
2022-07-26T15:10:41.530Z,3.04
2022-07-26T15:13:07.938Z,2.98
2022-07-26T15:15:34.308Z,3.12
2022-07-26T15:18:00.669Z,3.15
2022-07-26T15:20:27.041Z,2.88
2022-07-26T15:22:53.415Z,3.19
2022-07-26T15:25:19.787Z,3.14
2022-07-26T15:27:46.161Z,3.23
2022-07-26T15:30:13.861Z,2.97
2022-07-26T15:32:41.473Z,3.16
2022-07-26T15:35:07.857Z,2.93
2022-07-26T15:37:40.950Z,2.96
2022-07-26T15:40:07.324Z,2.95
2022-07-26T15:42:33.754Z,3.03
2022-07-26T15:45:00.131Z,3.17
2022-07-26T15:50:20.129Z,3.18
2022-07-26T15:52:46.512Z,2.98
2022-07-26T15:55:12.881Z,2.93
2022-07-26T15:57:39.266Z,2.95
2022-07-26T16:00:05.636Z,2.98
2022-07-26T16:02:38.294Z,2.74
2022-07-26T16:05:04.697Z,2.71
2022-07-26T16:07:31.057Z,2.86
2022-07-26T16:09:57.432Z,2.71
2022-07-26T16:12:23.789Z,2.51
2022-07-26T16:14:50.162Z,2.81
2022-07-26T16:17:16.563Z,2.91
2022-07-26T16:19:42.929Z,2.78
2022-07-26T16:22:09.370Z,2.61
2022-07-26T16:24:35.737Z,2.65
2022-07-26T16:27:02.117Z,2.80
2022-07-26T16:29:28.472Z,2.87
2022-07-26T16:31:54.918Z,2.74
2022-07-26T16:34:21.301Z,2.89
2022-07-26T16:36:47.689Z,2.63
2022-07-26T16:39:14.601Z,2.44
2022-07-26T16:41:41.362Z,2.65
2022-07-26T16:44:07.730Z,2.52
2022-07-26T16:46:34.132Z,2.57
2022-07-26T16:49:00.548Z,2.66
2022-07-26T16:51:26.961Z,2.68
2022-07-26T16:53:53.316Z,2.56
2022-07-26T16:56:19.677Z,2.52
2022-07-26T16:58:46.054Z,2.59
2022-07-26T17:01:12.511Z,2.55
2022-07-26T17:03:38.967Z,2.49
2022-07-26T17:06:06.650Z,2.55
2022-07-26T17:08:33.262Z,2.40
2022-07-26T17:10:59.621Z,2.33
2022-07-26T17:13:25.993Z,2.34
2022-07-26T17:15:52.395Z,2.45
2022-07-26T17:18:18.788Z,2.64
2022-07-26T17:20:45.151Z,2.47
2022-07-26T17:23:11.532Z,2.60
2022-07-26T17:25:37.888Z,2.55
2022-07-26T17:28:04.254Z,2.48
2022-07-26T17:30:31.675Z,2.45
2022-07-26T17:32:58.096Z,2.55
2022-07-26T17:35:24.503Z,2.50
2022-07-26T17:37:50.861Z,2.49
2022-07-26T17:40:17.541Z,2.40
2022-07-26T17:42:43.906Z,2.26
2022-07-26T17:45:10.270Z,2.36
2022-07-26T17:47:36.638Z,2.06
2022-07-26T17:52:49.369Z,2.27
2022-07-26T17:55:15.744Z,2.56
2022-07-26T17:57:42.113Z,2.12
2022-07-26T18:00:08.472Z,1.98
2022-07-26T18:02:34.846Z,2.10
2022-07-26T18:05:01.239Z,1.96
2022-07-26T18:07:27.650Z,1.88
2022-07-26T18:09:54.020Z,1.83
2022-07-26T18:12:20.388Z,2.02
2022-07-26T18:14:46.749Z,1.85
2022-07-26T18:17:13.116Z,1.82
2022-07-26T18:19:39.486Z,2.00
2022-07-26T18:22:06.393Z,2.00
2022-07-26T18:24:32.878Z,1.89
2022-07-26T18:26:59.245Z,1.71
2022-07-26T18:29:25.603Z,1.84
2022-07-26T18:31:52.099Z,1.79
2022-07-26T18:34:18.536Z,1.97
2022-07-26T18:36:44.906Z,2.05
2022-07-26T18:39:11.568Z,2.03
2022-07-26T18:41:38.314Z,2.03
2022-07-26T18:44:04.670Z,2.08
2022-07-26T18:46:31.141Z,2.00
2022-07-26T18:49:00.079Z,1.94
2022-07-26T18:51:26.580Z,1.83
2022-07-26T18:53:53.090Z,2.05
2022-07-26T18:56:19.515Z,2.04
2022-07-26T18:58:45.905Z,1.97
2022-07-26T19:01:12.338Z,2.00
2022-07-26T19:03:38.828Z,2.02
2022-07-26T19:06:05.217Z,1.90
2022-07-26T19:08:31.582Z,1.99
2022-07-26T19:10:57.946Z,2.16
2022-07-26T19:13:24.300Z,1.78
2022-07-26T19:15:50.676Z,1.96
2022-07-26T19:18:17.081Z,1.96
2022-07-26T19:20:43.430Z,1.84
2022-07-26T19:23:09.801Z,1.68
2022-07-26T19:25:36.170Z,1.93
2022-07-26T19:28:02.541Z,1.79
2022-07-26T19:30:28.912Z,1.76
2022-07-26T19:32:55.281Z,1.64
2022-07-26T19:35:21.641Z,1.54
2022-07-26T19:37:48.016Z,1.40
2022-07-26T19:40:14.369Z,1.29
2022-07-26T19:42:40.729Z,1.39
2022-07-26T19:45:07.095Z,1.48
2022-07-26T19:47:33.549Z,1.46
2022-07-26T19:49:59.922Z,1.44
2022-07-26T19:52:26.310Z,1.51
2022-07-26T19:54:52.667Z,1.31
2022-07-26T19:57:19.053Z,1.29
2022-07-26T19:59:45.415Z,1.50
2022-07-26T20:02:11.876Z,1.53
2022-07-26T20:04:40.779Z,1.66
2022-07-26T20:07:10.541Z,1.65
2022-07-26T20:09:36.904Z,1.46
2022-07-26T20:12:03.521Z,1.54
2022-07-26T20:14:29.893Z,1.53
2022-07-26T20:16:56.581Z,1.46
2022-07-26T20:19:23.080Z,1.64
2022-07-26T20:21:49.453Z,1.52
2022-07-26T20:24:15.872Z,1.27
2022-07-26T20:26:42.239Z,1.47
2022-07-26T20:29:08.914Z,1.32
2022-07-26T20:31:35.486Z,1.20
2022-07-26T20:34:01.838Z,1.30
2022-07-26T20:36:28.194Z,1.39
2022-07-26T20:38:54.576Z,1.28
2022-07-26T20:41:20.940Z,1.39
2022-07-26T20:43:47.326Z,1.35
2022-07-26T20:46:14.275Z,1.35
2022-07-26T20:48:40.689Z,1.35
2022-07-26T20:51:07.077Z,1.55
2022-07-26T20:53:40.142Z,1.46
2022-07-26T20:56:06.503Z,1.72
2022-07-26T20:58:32.865Z,1.43
2022-07-26T21:00:59.278Z,1.38
2022-07-26T21:03:25.696Z,1.40
2022-07-26T21:05:52.065Z,1.43
2022-07-26T21:08:18.421Z,1.55
2022-07-26T21:10:44.787Z,1.52
2022-07-26T21:13:11.170Z,1.41
2022-07-26T21:15:37.523Z,1.40
2022-07-26T21:18:03.899Z,1.56
2022-07-26T21:20:30.345Z,1.48
2022-07-26T21:23:08.093Z,1.39
2022-07-26T21:25:42.611Z,1.29
2022-07-26T21:28:08.973Z,1.40
2022-07-26T21:30:35.342Z,1.53
2022-07-26T21:33:01.699Z,1.44
2022-07-26T21:35:28.055Z,1.40
2022-07-26T21:37:54.414Z,1.33
2022-07-26T21:40:20.781Z,1.25
2022-07-26T21:42:47.130Z,1.25
2022-07-26T21:45:13.545Z,1.33
2022-07-26T21:47:39.893Z,1.28
2022-07-26T21:50:06.252Z,1.31
2022-07-26T21:52:32.625Z,1.40
2022-07-26T21:54:58.981Z,1.26
2022-07-26T21:57:25.355Z,1.36
2022-07-26T21:59:51.721Z,1.21
2022-07-26T22:02:19.483Z,1.45
2022-07-26T22:04:46.537Z,1.47
2022-07-26T22:07:12.896Z,1.27
2022-07-26T22:09:39.250Z,1.34
2022-07-26T22:12:05.627Z,1.61
2022-07-26T22:14:32.011Z,1.26
2022-07-26T22:16:58.436Z,1.12
2022-07-26T22:19:24.865Z,1.33
2022-07-26T22:21:51.219Z,1.38
2022-07-26T22:24:17.580Z,1.38
2022-07-26T22:26:43.945Z,1.30
2022-07-26T22:29:10.596Z,1.27
2022-07-26T22:31:37.193Z,1.41
2022-07-26T22:34:03.589Z,1.42
2022-07-26T22:36:29.952Z,1.29
2022-07-26T22:38:56.318Z,1.17
2022-07-26T22:41:22.664Z,1.32
2022-07-26T22:43:49.009Z,1.31
2022-07-26T22:46:19.667Z,1.39
2022-07-26T22:48:55.559Z,1.35
2022-07-26T22:51:21.917Z,1.27
2022-07-26T22:53:48.273Z,1.39
2022-07-26T22:56:14.640Z,1.40
2022-07-26T22:58:46.081Z,1.11
2022-07-26T23:01:12.540Z,1.36
2022-07-26T23:03:39.066Z,1.44
2022-07-26T23:06:10.327Z,1.27
2022-07-26T23:08:54.123Z,1.20
2022-07-26T23:11:20.485Z,1.36
2022-07-26T23:13:46.864Z,1.32
2022-07-26T23:16:13.298Z,1.43
2022-07-26T23:18:39.721Z,1.66
2022-07-26T23:21:06.102Z,1.52
2022-07-26T23:23:32.468Z,1.51
2022-07-26T23:25:58.849Z,1.37
2022-07-26T23:28:36.530Z,1.51
2022-07-26T23:31:04.628Z,1.35
2022-07-26T23:33:51.330Z,1.57
2022-07-26T23:36:17.419Z,1.44
2022-07-26T23:38:43.780Z,1.53
2022-07-26T23:41:10.154Z,1.60
2022-07-26T23:43:36.522Z,1.33
2022-07-26T23:46:02.906Z,1.34
2022-07-26T23:48:29.299Z,1.38
2022-07-26T23:50:55.706Z,1.46
2022-07-26T23:53:26.571Z,1.39
2022-07-26T23:55:53.468Z,1.52
2022-07-26T23:58:19.895Z,1.43
